sensor_id;sensor_type;location;lat;lon;timestamp;pressure;altitude;pressure_sealevel;temperature;humidity
12785;BME280;6456;42.680;23.260;2024-03-02T00:02:12;94033.72;;;9.61;100.00
12785;BME280;6456;42.680;23.260;2024-03-02T00:04:39;94059.38;;;9.77;100.00
12785;BME280;6456;42.680;23.260;2024-03-02T00:07:06;94013.16;;;9.40;100.00
12785;BME280;6456;42.680;23.260;2024-03-02T00:09:34;94056.88;;;9.82;100.00
12785;BME280;6456;42.680;23.260;2024-03-02T00:12:02;94035.69;;;9.65;100.00
12785;BME280;6456;42.680;23.260;2024-03-02T00:14:30;93984.13;;;9.35;100.00
12785;BME280;6456;42.680;23.260;2024-03-02T00:16:59;94083.91;;;9.89;100.00
12785;BME280;6456;42.680;23.260;2024-03-02T00:19:26;94027.16;;;9.52;100.00
12785;BME280;6456;42.680;23.260;2024-03-02T00:21:53;94092.41;;;10.03;100.00
12785;BME280;6456;42.680;23.260;2024-03-02T00:24:21;94025.31;;;9.52;100.00
12785;BME280;6456;42.680;23.260;2024-03-02T00:26:53;94039.56;;;9.63;100.00
12785;BME280;6456;42.680;23.260;2024-03-02T00:29:20;94082.13;;;10.01;100.00
12785;BME280;6456;42.680;23.260;2024-03-02T00:31:47;94043.75;;;9.82;100.00
12785;BME280;6456;42.680;23.260;2024-03-02T00:34:17;94097.53;;;10.16;100.00
12785;BME280;6456;42.680;23.260;2024-03-02T00:36:45;94095.72;;;10.16;100.00
12785;BME280;6456;42.680;23.260;2024-03-02T00:39:12;94085.66;;;10.13;100.00
12785;BME280;6456;42.680;23.260;2024-03-02T00:41:41;94087.25;;;10.14;100.00
12785;BME280;6456;42.680;23.260;2024-03-02T00:44:11;94098.94;;;10.18;100.00
12785;BME280;6456;42.680;23.260;2024-03-02T00:46:39;94083.44;;;10.10;100.00
12785;BME280;6456;42.680;23.260;2024-03-02T00:49:12;94088.69;;;10.28;100.00
12785;BME280;6456;42.680;23.260;2024-03-02T00:51:47;94063.38;;;10.16;100.00
12785;BME280;6456;42.680;23.260;2024-03-02T00:54:19;94075.25;;;10.18;100.00
12785;BME280;6456;42.680;23.260;2024-03-02T00:56:47;94014.41;;;9.85;100.00
12785;BME280;6456;42.680;23.260;2024-03-02T00:59:15;94099.78;;;10.30;100.00
12785;BME280;6456;42.680;23.260;2024-03-02T01:01:42;94096.13;;;10.32;100.00
12785;BME280;6456;42.680;23.260;2024-03-02T01:04:09;94058.75;;;10.11;100.00
12785;BME280;6456;42.680;23.260;2024-03-02T01:06:36;94101.97;;;10.34;100.00
12785;BME280;6456;42.680;23.260;2024-03-02T01:09:04;94064.22;;;10.10;100.00
12785;BME280;6456;42.680;23.260;2024-03-02T01:11:31;94068.75;;;10.21;100.00
12785;BME280;6456;42.680;23.260;2024-03-02T01:13:58;94075.09;;;10.32;100.00
12785;BME280;6456;42.680;23.260;2024-03-02T01:16:26;94040.16;;;10.13;100.00
12785;BME280;6456;42.680;23.260;2024-03-02T01:18:53;94030.28;;;10.08;100.00
12785;BME280;6456;42.680;23.260;2024-03-02T01:21:20;93999.34;;;9.92;100.00
12785;BME280;6456;42.680;23.260;2024-03-02T01:23:47;94052.31;;;10.25;100.00
12785;BME280;6456;42.680;23.260;2024-03-02T01:26:16;94006.22;;;9.93;100.00
12785;BME280;6456;42.680;23.260;2024-03-02T01:28:43;94015.38;;;10.02;100.00
12785;BME280;6456;42.680;23.260;2024-03-02T01:31:10;94036.63;;;10.19;100.00
12785;BME280;6456;42.680;23.260;2024-03-02T01:33:37;94019.41;;;10.05;100.00
12785;BME280;6456;42.680;23.260;2024-03-02T01:36:04;94033.06;;;10.13;100.00
12785;BME280;6456;42.680;23.260;2024-03-02T01:38:33;94000.03;;;9.88;100.00
12785;BME280;6456;42.680;23.260;2024-03-02T01:41:00;94072.00;;;10.35;100.00
12785;BME280;6456;42.680;23.260;2024-03-02T01:43:29;94042.22;;;10.22;100.00
12785;BME280;6456;42.680;23.260;2024-03-02T01:45:56;94059.44;;;10.37;100.00
12785;BME280;6456;42.680;23.260;2024-03-02T01:48:23;94062.41;;;10.40;100.00
12785;BME280;6456;42.680;23.260;2024-03-02T01:50:50;94048.44;;;10.40;100.00
12785;BME280;6456;42.680;23.260;2024-03-02T01:53:17;94051.69;;;10.42;100.00
12785;BME280;6456;42.680;23.260;2024-03-02T01:55:44;94048.59;;;10.45;100.00
12785;BME280;6456;42.680;23.260;2024-03-02T01:58:11;94057.28;;;10.45;100.00
12785;BME280;6456;42.680;23.260;2024-03-02T02:00:40;94057.28;;;10.45;100.00
12785;BME280;6456;42.680;23.260;2024-03-02T02:03:07;94016.03;;;10.16;100.00
12785;BME280;6456;42.680;23.260;2024-03-02T02:05:34;94052.94;;;10.39;100.00
12785;BME280;6456;42.680;23.260;2024-03-02T02:08:01;94044.09;;;10.34;100.00
12785;BME280;6456;42.680;23.260;2024-03-02T02:10:28;94045.53;;;10.18;100.00
12785;BME280;6456;42.680;23.260;2024-03-02T02:12:55;94061.25;;;10.24;100.00
12785;BME280;6456;42.680;23.260;2024-03-02T02:15:24;94052.19;;;10.20;100.00
12785;BME280;6456;42.680;23.260;2024-03-02T02:17:52;94062.56;;;10.15;100.00
12785;BME280;6456;42.680;23.260;2024-03-02T02:20:19;94057.81;;;10.06;100.00
12785;BME280;6456;42.680;23.260;2024-03-02T02:22:56;94004.06;;;9.72;100.00
12785;BME280;6456;42.680;23.260;2024-03-02T02:25:23;94003.34;;;9.65;100.00
12785;BME280;6456;42.680;23.260;2024-03-02T02:27:50;94053.97;;;9.90;100.00
12785;BME280;6456;42.680;23.260;2024-03-02T02:30:19;94005.69;;;9.55;100.00
12785;BME280;6456;42.680;23.260;2024-03-02T02:32:47;94038.53;;;9.64;100.00
12785;BME280;6456;42.680;23.260;2024-03-02T02:35:14;94039.41;;;9.58;100.00
12785;BME280;6456;42.680;23.260;2024-03-02T02:37:42;94029.78;;;9.52;100.00
12785;BME280;6456;42.680;23.260;2024-03-02T02:40:12;94055.53;;;9.61;100.00
12785;BME280;6456;42.680;23.260;2024-03-02T02:42:39;93995.59;;;9.22;100.00
12785;BME280;6456;42.680;23.260;2024-03-02T02:45:07;94050.94;;;9.57;100.00
12785;BME280;6456;42.680;23.260;2024-03-02T02:47:34;94057.22;;;9.56;100.00
12785;BME280;6456;42.680;23.260;2024-03-02T02:50:02;94023.16;;;9.31;100.00
12785;BME280;6456;42.680;23.260;2024-03-02T02:52:33;94046.78;;;9.49;100.00
12785;BME280;6456;42.680;23.260;2024-03-02T02:55:03;94047.59;;;9.50;100.00
12785;BME280;6456;42.680;23.260;2024-03-02T02:57:32;94045.63;;;9.45;100.00
12785;BME280;6456;42.680;23.260;2024-03-02T03:00:02;94047.59;;;9.50;100.00
12785;BME280;6456;42.680;23.260;2024-03-02T03:02:36;94051.97;;;9.56;100.00
12785;BME280;6456;42.680;23.260;2024-03-02T03:05:04;94044.16;;;9.49;100.00
12785;BME280;6456;42.680;23.260;2024-03-02T03:07:31;94065.91;;;9.56;100.00
12785;BME280;6456;42.680;23.260;2024-03-02T03:09:59;94060.84;;;9.55;100.00
12785;BME280;6456;42.680;23.260;2024-03-02T03:12:26;94033.59;;;9.38;100.00
12785;BME280;6456;42.680;23.260;2024-03-02T03:14:55;94032.78;;;9.37;100.00
12785;BME280;6456;42.680;23.260;2024-03-02T03:17:22;94060.94;;;9.48;100.00
12785;BME280;6456;42.680;23.260;2024-03-02T03:19:50;94011.13;;;9.24;100.00
12785;BME280;6456;42.680;23.260;2024-03-02T03:22:17;94039.66;;;9.38;100.00
12785;BME280;6456;42.680;23.260;2024-03-02T03:24:44;94041.59;;;9.43;100.00
12785;BME280;6456;42.680;23.260;2024-03-02T03:27:12;94053.66;;;9.50;100.00
12785;BME280;6456;42.680;23.260;2024-03-02T03:29:39;94055.31;;;9.45;100.00
12785;BME280;6456;42.680;23.260;2024-03-02T03:32:07;94045.31;;;9.35;100.00
12785;BME280;6456;42.680;23.260;2024-03-02T03:34:34;94061.47;;;9.39;100.00
12785;BME280;6456;42.680;23.260;2024-03-02T03:37:01;94070.88;;;9.46;100.00
12785;BME280;6456;42.680;23.260;2024-03-02T03:39:28;94016.91;;;9.14;100.00
12785;BME280;6456;42.680;23.260;2024-03-02T03:41:55;94064.81;;;9.46;100.00
12785;BME280;6456;42.680;23.260;2024-03-02T03:44:22;94003.38;;;8.92;100.00
12785;BME280;6456;42.680;23.260;2024-03-02T03:46:49;94068.75;;;9.37;100.00
12785;BME280;6456;42.680;23.260;2024-03-02T03:49:18;94065.53;;;9.35;100.00
12785;BME280;6456;42.680;23.260;2024-03-02T03:51:45;94052.69;;;9.27;100.00
12785;BME280;6456;42.680;23.260;2024-03-02T03:54:12;94017.38;;;9.04;100.00
12785;BME280;6456;42.680;23.260;2024-03-02T03:56:39;94049.28;;;9.26;100.00
12785;BME280;6456;42.680;23.260;2024-03-02T03:59:06;94070.72;;;9.41;100.00
12785;BME280;6456;42.680;23.260;2024-03-02T04:01:33;94057.59;;;9.41;100.00
12785;BME280;6456;42.680;23.260;2024-03-02T04:04:00;94067.66;;;9.44;100.00
12785;BME280;6456;42.680;23.260;2024-03-02T04:06:30;94000.78;;;9.11;100.00
12785;BME280;6456;42.680;23.260;2024-03-02T04:08:57;94049.41;;;9.31;100.00
12785;BME280;6456;42.680;23.260;2024-03-02T04:11:24;94065.81;;;9.45;100.00
12785;BME280;6456;42.680;23.260;2024-03-02T04:13:51;94065.25;;;9.43;100.00
12785;BME280;6456;42.680;23.260;2024-03-02T04:16:19;94060.88;;;9.37;100.00
12785;BME280;6456;42.680;23.260;2024-03-02T04:18:46;94047.38;;;9.33;100.00
12785;BME280;6456;42.680;23.260;2024-03-02T04:21:13;94066.13;;;9.37;100.00
12785;BME280;6456;42.680;23.260;2024-03-02T04:23:41;94054.59;;;9.38;100.00
12785;BME280;6456;42.680;23.260;2024-03-02T04:26:08;93978.03;;;8.86;100.00
12785;BME280;6456;42.680;23.260;2024-03-02T04:28:35;94014.31;;;9.08;100.00
12785;BME280;6456;42.680;23.260;2024-03-02T04:31:03;94064.88;;;9.39;100.00
12785;BME280;6456;42.680;23.260;2024-03-02T04:33:30;94022.91;;;9.15;100.00
12785;BME280;6456;42.680;23.260;2024-03-02T04:35:57;93994.06;;;8.96;100.00
12785;BME280;6456;42.680;23.260;2024-03-02T04:38:24;94053.28;;;9.29;100.00
12785;BME280;6456;42.680;23.260;2024-03-02T04:40:53;93986.31;;;8.83;100.00
12785;BME280;6456;42.680;23.260;2024-03-02T04:43:19;94068.75;;;9.37;100.00
12785;BME280;6456;42.680;23.260;2024-03-02T04:45:46;94002.78;;;8.90;100.00
12785;BME280;6456;42.680;23.260;2024-03-02T04:48:13;94010.22;;;8.93;100.00
12785;BME280;6456;42.680;23.260;2024-03-02T04:50:40;94076.63;;;9.37;100.00
12785;BME280;6456;42.680;23.260;2024-03-02T04:53:07;94075.59;;;9.38;100.00
12785;BME280;6456;42.680;23.260;2024-03-02T04:55:34;94081.66;;;9.38;100.00
12785;BME280;6456;42.680;23.260;2024-03-02T04:58:34;94076.03;;;9.35;100.00
12785;BME280;6456;42.680;23.260;2024-03-02T05:01:02;94075.81;;;9.36;100.00
12785;BME280;6456;42.680;23.260;2024-03-02T05:03:29;94083.31;;;9.33;100.00
12785;BME280;6456;42.680;23.260;2024-03-02T05:05:55;94024.31;;;8.99;100.00
12785;BME280;6456;42.680;23.260;2024-03-02T05:08:22;94016.72;;;8.91;100.00
12785;BME280;6456;42.680;23.260;2024-03-02T05:10:49;94030.34;;;8.99;100.00
12785;BME280;6456;42.680;23.260;2024-03-02T05:13:16;94052.25;;;9.12;100.00
12785;BME280;6456;42.680;23.260;2024-03-02T05:15:47;94035.16;;;9.02;100.00
12785;BME280;6456;42.680;23.260;2024-03-02T05:18:14;94073.16;;;9.18;100.00
12785;BME280;6456;42.680;23.260;2024-03-02T05:20:41;94082.59;;;9.26;100.00
12785;BME280;6456;42.680;23.260;2024-03-02T05:23:08;94092.63;;;9.11;100.00
12785;BME280;6456;42.680;23.260;2024-03-02T05:25:35;94032.56;;;8.78;100.00
12785;BME280;6456;42.680;23.260;2024-03-02T05:28:03;94033.97;;;8.80;100.00
12785;BME280;6456;42.680;23.260;2024-03-02T05:30:30;94028.97;;;8.72;100.00
12785;BME280;6456;42.680;23.260;2024-03-02T05:32:58;94108.09;;;9.19;100.00
12785;BME280;6456;42.680;23.260;2024-03-02T05:35:25;94052.47;;;8.85;100.00
12785;BME280;6456;42.680;23.260;2024-03-02T05:37:52;94115.09;;;9.07;100.00
12785;BME280;6456;42.680;23.260;2024-03-02T05:40:19;94109.84;;;9.07;100.00
12785;BME280;6456;42.680;23.260;2024-03-02T05:42:46;94094.94;;;9.00;100.00
12785;BME280;6456;42.680;23.260;2024-03-02T05:45:13;94030.63;;;8.67;100.00
12785;BME280;6456;42.680;23.260;2024-03-02T05:47:42;94113.34;;;9.19;100.00
12785;BME280;6456;42.680;23.260;2024-03-02T05:50:10;94128.69;;;9.22;100.00
12785;BME280;6456;42.680;23.260;2024-03-02T05:52:37;94066.56;;;8.91;100.00
12785;BME280;6456;42.680;23.260;2024-03-02T05:55:05;94111.03;;;9.29;100.00
12785;BME280;6456;42.680;23.260;2024-03-02T05:57:33;94107.84;;;9.27;100.00
12785;BME280;6456;42.680;23.260;2024-03-02T06:00:13;94114.41;;;9.36;100.00
12785;BME280;6456;42.680;23.260;2024-03-02T06:02:42;94093.22;;;9.13;100.00
12785;BME280;6456;42.680;23.260;2024-03-02T06:05:11;94112.47;;;9.25;100.00
12785;BME280;6456;42.680;23.260;2024-03-02T06:07:38;94115.63;;;9.33;100.00
12785;BME280;6456;42.680;23.260;2024-03-02T06:10:05;94112.94;;;9.40;100.00
12785;BME280;6456;42.680;23.260;2024-03-02T06:12:34;94071.78;;;9.16;100.00
12785;BME280;6456;42.680;23.260;2024-03-02T06:15:01;94112.66;;;9.48;100.00
12785;BME280;6456;42.680;23.260;2024-03-02T06:17:29;94129.13;;;9.55;100.00
12785;BME280;6456;42.680;23.260;2024-03-02T06:19:56;94105.34;;;9.50;100.00
12785;BME280;6456;42.680;23.260;2024-03-02T06:22:24;94088.94;;;9.36;100.00
12785;BME280;6456;42.680;23.260;2024-03-02T06:24:52;94090.09;;;9.40;100.00
12785;BME280;6456;42.680;23.260;2024-03-02T06:27:18;94109.59;;;9.51;100.00
12785;BME280;6456;42.680;23.260;2024-03-02T06:29:45;94099.44;;;9.54;100.00
12785;BME280;6456;42.680;23.260;2024-03-02T06:32:14;94077.91;;;9.28;100.00
12785;BME280;6456;42.680;23.260;2024-03-02T06:34:41;94121.06;;;9.56;100.00
12785;BME280;6456;42.680;23.260;2024-03-02T06:37:08;94121.34;;;9.48;100.00
12785;BME280;6456;42.680;23.260;2024-03-02T06:42:22;94125.66;;;9.61;100.00
12785;BME280;6456;42.680;23.260;2024-03-02T06:44:49;94084.56;;;9.30;100.00
12785;BME280;6456;42.680;23.260;2024-03-02T06:47:16;94104.53;;;9.49;100.00
12785;BME280;6456;42.680;23.260;2024-03-02T06:49:45;94079.84;;;9.39;100.00
12785;BME280;6456;42.680;23.260;2024-03-02T06:52:12;94136.19;;;9.79;100.00
12785;BME280;6456;42.680;23.260;2024-03-02T06:54:41;94144.63;;;9.81;100.00
12785;BME280;6456;42.680;23.260;2024-03-02T06:57:08;94137.75;;;9.80;100.00
12785;BME280;6456;42.680;23.260;2024-03-02T06:59:35;94140.97;;;9.82;100.00
12785;BME280;6456;42.680;23.260;2024-03-02T07:02:02;94140.34;;;9.87;100.00
12785;BME280;6456;42.680;23.260;2024-03-02T07:04:29;94147.84;;;9.83;100.00
12785;BME280;6456;42.680;23.260;2024-03-02T07:06:56;94131.78;;;9.73;100.00
12785;BME280;6456;42.680;23.260;2024-03-02T07:09:23;94128.00;;;9.69;100.00
12785;BME280;6456;42.680;23.260;2024-03-02T07:11:52;94128.94;;;9.75;100.00
12785;BME280;6456;42.680;23.260;2024-03-02T07:14:19;94134.41;;;9.73;100.00
12785;BME280;6456;42.680;23.260;2024-03-02T07:16:46;94099.75;;;9.46;100.00
12785;BME280;6456;42.680;23.260;2024-03-02T07:19:13;94147.41;;;9.86;100.00
12785;BME280;6456;42.680;23.260;2024-03-02T07:21:40;94147.75;;;9.90;100.00
12785;BME280;6456;42.680;23.260;2024-03-02T07:24:07;94140.09;;;9.88;100.00
12785;BME280;6456;42.680;23.260;2024-03-02T07:26:39;94151.19;;;9.90;100.00
12785;BME280;6456;42.680;23.260;2024-03-02T07:29:08;94138.66;;;9.74;100.00
12785;BME280;6456;42.680;23.260;2024-03-02T07:31:35;94148.34;;;9.74;100.00
12785;BME280;6456;42.680;23.260;2024-03-02T07:34:02;94150.75;;;9.75;100.00
12785;BME280;6456;42.680;23.260;2024-03-02T07:36:29;94112.31;;;9.44;100.00
12785;BME280;6456;42.680;23.260;2024-03-02T07:38:56;94081.72;;;9.32;100.00
12785;BME280;6456;42.680;23.260;2024-03-02T07:41:23;94101.28;;;9.54;100.00
12785;BME280;6456;42.680;23.260;2024-03-02T07:43:51;94161.84;;;9.95;100.00
12785;BME280;6456;42.680;23.260;2024-03-02T07:46:19;94164.91;;;9.92;100.00
12785;BME280;6456;42.680;23.260;2024-03-02T07:48:46;94109.75;;;9.56;100.00
12785;BME280;6456;42.680;23.260;2024-03-02T07:51:13;94135.88;;;9.69;100.00
12785;BME280;6456;42.680;23.260;2024-03-02T07:53:40;94168.44;;;9.86;100.00
12785;BME280;6456;42.680;23.260;2024-03-02T07:56:07;94165.16;;;9.91;100.00
12785;BME280;6456;42.680;23.260;2024-03-02T07:58:35;94102.53;;;9.51;100.00
12785;BME280;6456;42.680;23.260;2024-03-02T08:01:02;94153.53;;;9.98;100.00
12785;BME280;6456;42.680;23.260;2024-03-02T08:03:30;94116.03;;;9.73;100.00
12785;BME280;6456;42.680;23.260;2024-03-02T08:05:59;94168.97;;;10.13;100.00
12785;BME280;6456;42.680;23.260;2024-03-02T08:08:27;94152.38;;;9.94;100.00
12785;BME280;6456;42.680;23.260;2024-03-02T08:10:53;94179.09;;;10.09;100.00
12785;BME280;6456;42.680;23.260;2024-03-02T08:13:21;94175.44;;;10.10;100.00
12785;BME280;6456;42.680;23.260;2024-03-02T08:15:48;94165.81;;;10.04;100.00
12785;BME280;6456;42.680;23.260;2024-03-02T08:18:15;94165.66;;;9.99;100.00
12785;BME280;6456;42.680;23.260;2024-03-02T08:20:43;94176.03;;;10.12;100.00
12785;BME280;6456;42.680;23.260;2024-03-02T08:23:10;94070.06;;;9.46;100.00
12785;BME280;6456;42.680;23.260;2024-03-02T08:25:37;94164.41;;;10.20;100.00
12785;BME280;6456;42.680;23.260;2024-03-02T08:28:05;94181.28;;;10.30;100.00
12785;BME280;6456;42.680;23.260;2024-03-02T08:30:32;94103.31;;;9.88;100.00
12785;BME280;6456;42.680;23.260;2024-03-02T08:32:59;94140.13;;;10.24;100.00
12785;BME280;6456;42.680;23.260;2024-03-02T08:35:26;94181.25;;;10.49;100.00
12785;BME280;6456;42.680;23.260;2024-03-02T08:37:55;94121.91;;;10.23;100.00
12785;BME280;6456;42.680;23.260;2024-03-02T08:40:22;94149.25;;;10.52;100.00
12785;BME280;6456;42.680;23.260;2024-03-02T08:42:49;94145.44;;;10.48;100.00
12785;BME280;6456;42.680;23.260;2024-03-02T08:45:16;94173.47;;;10.72;100.00
12785;BME280;6456;42.680;23.260;2024-03-02T08:47:45;94176.13;;;10.83;100.00
12785;BME280;6456;42.680;23.260;2024-03-02T08:50:13;94161.97;;;10.84;100.00
12785;BME280;6456;42.680;23.260;2024-03-02T08:52:40;94169.56;;;11.04;100.00
12785;BME280;6456;42.680;23.260;2024-03-02T08:55:09;94175.53;;;11.23;100.00
12785;BME280;6456;42.680;23.260;2024-03-02T08:57:36;94158.59;;;11.19;100.00
12785;BME280;6456;42.680;23.260;2024-03-02T09:00:05;94132.38;;;11.12;100.00
12785;BME280;6456;42.680;23.260;2024-03-02T09:02:33;94184.59;;;11.50;100.00
12785;BME280;6456;42.680;23.260;2024-03-02T09:05:03;94181.19;;;11.49;100.00
12785;BME280;6456;42.680;23.260;2024-03-02T09:07:30;94167.53;;;11.52;100.00
12785;BME280;6456;42.680;23.260;2024-03-02T09:09:57;94173.72;;;11.58;100.00
12785;BME280;6456;42.680;23.260;2024-03-02T09:12:26;94087.94;;;11.04;100.00
12785;BME280;6456;42.680;23.260;2024-03-02T09:14:53;94143.59;;;11.31;100.00
12785;BME280;6456;42.680;23.260;2024-03-02T09:17:20;94179.22;;;11.56;100.00
12785;BME280;6456;42.680;23.260;2024-03-02T09:19:47;94142.91;;;11.35;100.00
12785;BME280;6456;42.680;23.260;2024-03-02T09:22:18;94197.81;;;11.73;100.00
12785;BME280;6456;42.680;23.260;2024-03-02T09:24:45;94200.94;;;11.82;100.00
12785;BME280;6456;42.680;23.260;2024-03-02T09:27:12;94183.94;;;11.78;100.00
12785;BME280;6456;42.680;23.260;2024-03-02T09:29:40;94158.84;;;11.64;100.00
12785;BME280;6456;42.680;23.260;2024-03-02T09:32:08;94139.59;;;11.51;100.00
12785;BME280;6456;42.680;23.260;2024-03-02T09:34:39;94170.09;;;11.71;100.00
12785;BME280;6456;42.680;23.260;2024-03-02T09:37:06;94163.22;;;11.70;100.00
12785;BME280;6456;42.680;23.260;2024-03-02T09:39:33;94147.25;;;11.53;100.00
12785;BME280;6456;42.680;23.260;2024-03-02T09:42:00;94207.44;;;11.91;100.00
12785;BME280;6456;42.680;23.260;2024-03-02T09:44:27;94208.50;;;11.90;100.00
12785;BME280;6456;42.680;23.260;2024-03-02T09:46:56;94205.06;;;11.89;100.00
12785;BME280;6456;42.680;23.260;2024-03-02T09:49:23;94159.16;;;11.55;100.00
12785;BME280;6456;42.680;23.260;2024-03-02T09:51:50;94199.97;;;11.88;100.00
12785;BME280;6456;42.680;23.260;2024-03-02T09:54:17;94202.88;;;11.86;100.00
12785;BME280;6456;42.680;23.260;2024-03-02T09:56:44;94175.13;;;11.84;100.00
12785;BME280;6456;42.680;23.260;2024-03-02T09:59:11;94152.44;;;11.71;100.00
12785;BME280;6456;42.680;23.260;2024-03-02T10:01:57;94198.63;;;11.97;100.00
12785;BME280;6456;42.680;23.260;2024-03-02T10:04:25;94141.19;;;11.64;100.00
12785;BME280;6456;42.680;23.260;2024-03-02T10:07:09;94202.97;;;12.03;100.00
12785;BME280;6456;42.680;23.260;2024-03-02T10:09:40;94135.56;;;11.60;100.00
12785;BME280;6456;42.680;23.260;2024-03-02T10:12:08;94203.09;;;11.96;100.00
12785;BME280;6456;42.680;23.260;2024-03-02T10:14:37;94204.34;;;11.94;100.00
12785;BME280;6456;42.680;23.260;2024-03-02T10:17:07;94191.97;;;11.83;100.00
12785;BME280;6456;42.680;23.260;2024-03-02T10:19:36;94144.41;;;11.43;100.00
12785;BME280;6456;42.680;23.260;2024-03-02T10:22:06;94188.97;;;11.68;100.00
12785;BME280;6456;42.680;23.260;2024-03-02T10:24:37;94156.75;;;11.31;100.00
12785;BME280;6456;42.680;23.260;2024-03-02T10:27:09;94197.19;;;11.48;100.00
12785;BME280;6456;42.680;23.260;2024-03-02T10:29:40;94186.22;;;11.39;100.00
12785;BME280;6456;42.680;23.260;2024-03-02T10:32:10;94196.88;;;11.44;100.00
12785;BME280;6456;42.680;23.260;2024-03-02T10:34:39;94199.16;;;11.41;100.00
12785;BME280;6456;42.680;23.260;2024-03-02T10:37:13;94160.09;;;11.26;100.00
12785;BME280;6456;42.680;23.260;2024-03-02T10:39:46;94154.13;;;11.19;100.00
12785;BME280;6456;42.680;23.260;2024-03-02T10:42:14;94156.84;;;11.13;100.00
12785;BME280;6456;42.680;23.260;2024-03-02T10:44:42;94144.47;;;11.02;100.00
12785;BME280;6456;42.680;23.260;2024-03-02T10:47:12;94072.97;;;10.52;100.00
12785;BME280;6456;42.680;23.260;2024-03-02T10:49:44;94070.56;;;10.50;100.00
12785;BME280;6456;42.680;23.260;2024-03-02T10:52:13;94104.13;;;10.78;100.00
12785;BME280;6456;42.680;23.260;2024-03-02T10:54:40;94142.28;;;10.99;100.00
12785;BME280;6456;42.680;23.260;2024-03-02T10:57:11;94134.38;;;10.87;100.00
12785;BME280;6456;42.680;23.260;2024-03-02T10:59:48;94186.19;;;11.28;100.00
12785;BME280;6456;42.680;23.260;2024-03-02T11:02:21;94120.50;;;10.80;100.00
12785;BME280;6456;42.680;23.260;2024-03-02T11:05:00;94106.56;;;10.79;100.00
12785;BME280;6456;42.680;23.260;2024-03-02T11:07:33;94087.53;;;10.66;100.00
12785;BME280;6456;42.680;23.260;2024-03-02T11:10:02;94178.84;;;11.18;100.00
12785;BME280;6456;42.680;23.260;2024-03-02T11:12:39;94154.31;;;10.94;100.00
12785;BME280;6456;42.680;23.260;2024-03-02T11:15:11;94173.44;;;11.13;100.00
12785;BME280;6456;42.680;23.260;2024-03-02T11:17:44;94113.97;;;10.71;100.00
12785;BME280;6456;42.680;23.260;2024-03-02T11:20:12;94126.81;;;10.79;100.00
12785;BME280;6456;42.680;23.260;2024-03-02T11:22:40;94161.66;;;11.04;100.00
12785;BME280;6456;42.680;23.260;2024-03-02T11:25:23;94173.78;;;11.05;100.00
12785;BME280;6456;42.680;23.260;2024-03-02T11:28:03;94150.44;;;10.97;100.00
12785;BME280;6456;42.680;23.260;2024-03-02T11:30:49;94158.56;;;11.07;100.00
12785;BME280;6456;42.680;23.260;2024-03-02T11:33:28;94163.03;;;11.18;100.00
12785;BME280;6456;42.680;23.260;2024-03-02T11:35:56;94170.63;;;11.26;100.00
12785;BME280;6456;42.680;23.260;2024-03-02T11:38:34;94168.44;;;11.35;100.00
12785;BME280;6456;42.680;23.260;2024-03-02T11:41:06;94165.59;;;11.36;100.00
12785;BME280;6456;42.680;23.260;2024-03-02T11:43:37;94115.97;;;10.99;100.00
12785;BME280;6456;42.680;23.260;2024-03-02T11:46:10;94109.09;;;10.98;100.00
12785;BME280;6456;42.680;23.260;2024-03-02T11:48:40;94172.00;;;11.40;100.00
12785;BME280;6456;42.680;23.260;2024-03-02T11:51:10;94139.91;;;11.20;100.00
12785;BME280;6456;42.680;23.260;2024-03-02T11:53:38;94164.53;;;11.37;100.00
12785;BME280;6456;42.680;23.260;2024-03-02T11:56:06;94130.88;;;11.16;100.00
12785;BME280;6456;42.680;23.260;2024-03-02T11:58:40;94170.84;;;11.36;100.00
12785;BME280;6456;42.680;23.260;2024-03-02T12:01:08;94098.44;;;10.81;100.00
12785;BME280;6456;42.680;23.260;2024-03-02T12:03:39;94171.19;;;11.28;100.00
12785;BME280;6456;42.680;23.260;2024-03-02T12:06:09;94156.72;;;11.08;100.00
12785;BME280;6456;42.680;23.260;2024-03-02T12:08:36;94165.44;;;11.20;100.00
12785;BME280;6456;42.680;23.260;2024-03-02T12:11:13;94111.84;;;10.91;100.00
12785;BME280;6456;42.680;23.260;2024-03-02T12:13:52;94176.69;;;11.27;100.00
12785;BME280;6456;42.680;23.260;2024-03-02T12:16:24;94163.84;;;11.30;100.00
12785;BME280;6456;42.680;23.260;2024-03-02T12:18:56;94089.41;;;10.88;100.00
12785;BME280;6456;42.680;23.260;2024-03-02T12:21:23;94132.50;;;11.17;100.00
12785;BME280;6456;42.680;23.260;2024-03-02T12:23:50;94128.03;;;11.29;100.00
12785;BME280;6456;42.680;23.260;2024-03-02T12:26:20;94166.28;;;11.55;100.00
12785;BME280;6456;42.680;23.260;2024-03-02T12:28:51;94074.09;;;11.09;100.00
12785;BME280;6456;42.680;23.260;2024-03-02T12:31:22;94159.09;;;11.74;100.00
12785;BME280;6456;42.680;23.260;2024-03-02T12:33:49;94152.69;;;11.70;100.00
12785;BME280;6456;42.680;23.260;2024-03-02T12:36:20;94117.59;;;11.57;100.00
12785;BME280;6456;42.680;23.260;2024-03-02T12:38:47;94055.06;;;11.18;100.00
12785;BME280;6456;42.680;23.260;2024-03-02T12:41:16;94089.44;;;11.46;100.00
12785;BME280;6456;42.680;23.260;2024-03-02T12:43:43;94164.66;;;12.00;100.00
12785;BME280;6456;42.680;23.260;2024-03-02T12:46:11;94051.16;;;11.32;100.00
12785;BME280;6456;42.680;23.260;2024-03-02T12:48:38;94092.84;;;11.58;100.00
12785;BME280;6456;42.680;23.260;2024-03-02T12:51:06;94162.69;;;12.07;100.00
12785;BME280;6456;42.680;23.260;2024-03-02T12:53:35;94136.03;;;11.81;100.00
12785;BME280;6456;42.680;23.260;2024-03-02T12:56:02;94134.31;;;11.86;100.00
12785;BME280;6456;42.680;23.260;2024-03-02T12:58:39;94106.59;;;11.60;100.00
12785;BME280;6456;42.680;23.260;2024-03-02T13:01:06;94157.50;;;11.84;100.00
12785;BME280;6456;42.680;23.260;2024-03-02T13:03:36;94116.34;;;11.48;100.00
12785;BME280;6456;42.680;23.260;2024-03-02T13:06:11;94144.53;;;11.59;100.00